Terminal Aerodrome Forecast
Issued by NWS

Home | Current Version | Previous Version | Text Only | Print | Product List | Glossary On
Versions: 1 2 3 4 5 6 7 8 9 10 11 12 13 14 15 16 17 18 19 20 21 22 23
000
FTUS43 KDLH 251700
TAFHIB
TAF
KHIB 251720Z 2518/2618 26004KT P6SM FEW030
     FM251900 VRB03KT P6SM BKN035
     FM260400 00000KT P6SM OVC025
     FM260900 01005KT P6SM -SN SCT009 OVC018
     FM261200 36007KT 5SM -SN BKN012 OVC035
      TEMPO 2616/2618 1 1/2SM -SN BR BKN024=

USA.gov is the U.S. government's official web portal to all federal, state and local government web resources and services.